Hauptseite
METAR-TAF:

METAR-TAF

Flughäfen :

Belmar / Farmingdale, New Jersey, Vereinigte Staaten

Breite: 40-11N, Länge: 074-08W, Höhe: 48 m

Beobachtung

Neuester Wetterbericht von vor 59 Minuten, um 16:03 UTC
Wind 5 kt aus Nordost
Temperatur 16°C
Luftfeuchtigkeit 88%
Luftdruck 1024 hPa
Sichtweite: 16.1 km
Geschlossene Wolkendecke in der Höhe von 1000 ft

METAR: KBLM 251603Z AUTO 05005KT 10SM OVC010 16/14 A3025 RMK AO2

Zeit: 13:02 (17:02 UTC)


TAF: fehlend

Wetterbeobachtungen und Prognosen von mehr als 4000 Flughäfen (METAR und TAF Bericht).

Die verfügbaren Stationen werden durch gelbe und rote Markierungen auf der Karte dargestellt.

Führen Sie die Maus auf sie, um den Namen der Station zu sehen.

Darauf klicken, um die Beobachtung von Wetterbeobachtungen und Prognosen zu sehen.

Um die Karte zu ändern : klicken Sie auf den grünen Tasten mit einem schwarzen Kreuz Zum Vergrößern, auf den grünen Button mit einem Gedankenstrich zu verkleinern, oder auf die grünen Pfeile für benachbarte Karten.


METAR-TAF: